sensor_id;sensor_type;location;lat;lon;timestamp;temperature;humidity
1175;DHT22;576;48.418;10.074;2023-07-02T00:00:22;27.00;63.00
1175;DHT22;576;48.418;10.074;2023-07-02T00:02:50;27.00;63.00
1175;DHT22;576;48.418;10.074;2023-07-02T00:05:19;27.00;63.00
1175;DHT22;576;48.418;10.074;2023-07-02T00:07:47;27.00;63.00
1175;DHT22;576;48.418;10.074;2023-07-02T00:10:15;27.00;63.00
1175;DHT22;576;48.418;10.074;2023-07-02T00:12:43;27.00;63.00
1175;DHT22;576;48.418;10.074;2023-07-02T00:15:13;27.00;63.00
1175;DHT22;576;48.418;10.074;2023-07-02T00:17:41;27.00;63.10
1175;DHT22;576;48.418;10.074;2023-07-02T00:20:11;27.00;63.10
1175;DHT22;576;48.418;10.074;2023-07-02T00:22:43;27.00;63.10
1175;DHT22;576;48.418;10.074;2023-07-02T00:25:13;27.00;63.10
1175;DHT22;576;48.418;10.074;2023-07-02T00:27:42;27.00;63.10
1175;DHT22;576;48.418;10.074;2023-07-02T00:30:10;27.00;63.20
1175;DHT22;576;48.418;10.074;2023-07-02T00:32:40;27.00;63.20
1175;DHT22;576;48.418;10.074;2023-07-02T00:35:08;27.00;63.20
1175;DHT22;576;48.418;10.074;2023-07-02T00:37:37;27.00;63.20
1175;DHT22;576;48.418;10.074;2023-07-02T00:40:06;27.00;63.20
1175;DHT22;576;48.418;10.074;2023-07-02T00:42:35;27.00;63.20
1175;DHT22;576;48.418;10.074;2023-07-02T00:45:04;27.00;63.30
1175;DHT22;576;48.418;10.074;2023-07-02T00:47:34;27.00;63.30
1175;DHT22;576;48.418;10.074;2023-07-02T00:50:05;26.90;63.30
1175;DHT22;576;48.418;10.074;2023-07-02T00:52:36;26.90;63.30
1175;DHT22;576;48.418;10.074;2023-07-02T00:55:06;26.90;63.30
1175;DHT22;576;48.418;10.074;2023-07-02T00:57:34;26.90;63.30
1175;DHT22;576;48.418;10.074;2023-07-02T01:00:03;27.00;63.40
1175;DHT22;576;48.418;10.074;2023-07-02T01:02:32;26.90;63.30
1175;DHT22;576;48.418;10.074;2023-07-02T01:05:00;26.90;63.30
1175;DHT22;576;48.418;10.074;2023-07-02T01:07:30;26.90;63.30
1175;DHT22;576;48.418;10.074;2023-07-02T01:09:58;26.90;63.20
1175;DHT22;576;48.418;10.074;2023-07-02T01:12:27;26.90;63.10
1175;DHT22;576;48.418;10.074;2023-07-02T01:14:58;26.90;63.10
1175;DHT22;576;48.418;10.074;2023-07-02T01:17:31;26.90;63.10
1175;DHT22;576;48.418;10.074;2023-07-02T01:20:10;26.90;63.00
1175;DHT22;576;48.418;10.074;2023-07-02T01:22:38;26.90;63.10
1175;DHT22;576;48.418;10.074;2023-07-02T01:25:08;26.90;63.00
1175;DHT22;576;48.418;10.074;2023-07-02T01:27:37;26.90;63.10
1175;DHT22;576;48.418;10.074;2023-07-02T01:30:07;26.90;63.00
1175;DHT22;576;48.418;10.074;2023-07-02T01:32:37;26.90;63.00
1175;DHT22;576;48.418;10.074;2023-07-02T01:35:08;26.90;63.00
1175;DHT22;576;48.418;10.074;2023-07-02T01:37:36;26.90;62.90
1175;DHT22;576;48.418;10.074;2023-07-02T01:40:06;26.90;62.90
1175;DHT22;576;48.418;10.074;2023-07-02T01:42:35;26.90;62.80
1175;DHT22;576;48.418;10.074;2023-07-02T01:45:04;26.90;62.70
1175;DHT22;576;48.418;10.074;2023-07-02T01:47:32;26.90;62.90
1175;DHT22;576;48.418;10.074;2023-07-02T01:50:03;26.90;62.80
1175;DHT22;576;48.418;10.074;2023-07-02T01:52:32;26.90;62.90
1175;DHT22;576;48.418;10.074;2023-07-02T01:55:01;26.80;62.80
1175;DHT22;576;48.418;10.074;2023-07-02T01:57:30;26.90;62.80
1175;DHT22;576;48.418;10.074;2023-07-02T01:59:58;26.90;62.50
1175;DHT22;576;48.418;10.074;2023-07-02T02:02:27;26.80;62.60
1175;DHT22;576;48.418;10.074;2023-07-02T02:04:55;26.80;62.60
1175;DHT22;576;48.418;10.074;2023-07-02T02:07:24;26.80;62.60
1175;DHT22;576;48.418;10.074;2023-07-02T02:09:54;26.80;62.50
1175;DHT22;576;48.418;10.074;2023-07-02T02:12:22;26.80;62.60
1175;DHT22;576;48.418;10.074;2023-07-02T02:14:51;26.80;62.40
1175;DHT22;576;48.418;10.074;2023-07-02T02:17:19;26.80;62.40
1175;DHT22;576;48.418;10.074;2023-07-02T02:19:47;26.80;62.50
1175;DHT22;576;48.418;10.074;2023-07-02T02:22:15;26.80;62.30
1175;DHT22;576;48.418;10.074;2023-07-02T02:24:43;26.80;62.40
1175;DHT22;576;48.418;10.074;2023-07-02T02:27:13;26.80;62.40
1175;DHT22;576;48.418;10.074;2023-07-02T02:29:41;26.80;62.30
1175;DHT22;576;48.418;10.074;2023-07-02T02:32:09;26.80;62.30
1175;DHT22;576;48.418;10.074;2023-07-02T02:34:38;26.80;62.20
1175;DHT22;576;48.418;10.074;2023-07-02T02:37:06;26.80;62.20
1175;DHT22;576;48.418;10.074;2023-07-02T02:39:36;26.80;62.20
1175;DHT22;576;48.418;10.074;2023-07-02T02:42:05;26.80;62.20
1175;DHT22;576;48.418;10.074;2023-07-02T02:44:34;26.80;62.20
1175;DHT22;576;48.418;10.074;2023-07-02T02:47:03;26.80;62.20
1175;DHT22;576;48.418;10.074;2023-07-02T02:49:32;26.80;62.10
1175;DHT22;576;48.418;10.074;2023-07-02T02:52:01;26.80;62.00
1175;DHT22;576;48.418;10.074;2023-07-02T02:54:29;26.80;62.00
1175;DHT22;576;48.418;10.074;2023-07-02T02:56:57;26.80;62.10
1175;DHT22;576;48.418;10.074;2023-07-02T02:59:25;26.70;62.10
1175;DHT22;576;48.418;10.074;2023-07-02T03:01:55;26.70;62.00
1175;DHT22;576;48.418;10.074;2023-07-02T03:04:23;26.70;62.00
1175;DHT22;576;48.418;10.074;2023-07-02T03:06:52;26.70;62.00
1175;DHT22;576;48.418;10.074;2023-07-02T03:09:20;26.70;62.00
1175;DHT22;576;48.418;10.074;2023-07-02T03:11:49;26.70;61.90
1175;DHT22;576;48.418;10.074;2023-07-02T03:14:17;26.70;61.90
1175;DHT22;576;48.418;10.074;2023-07-02T03:16:45;26.70;61.80
1175;DHT22;576;48.418;10.074;2023-07-02T03:19:15;26.70;61.60
1175;DHT22;576;48.418;10.074;2023-07-02T03:21:46;26.70;61.60
1175;DHT22;576;48.418;10.074;2023-07-02T03:24:14;26.70;61.70
1175;DHT22;576;48.418;10.074;2023-07-02T03:26:43;26.70;61.70
1175;DHT22;576;48.418;10.074;2023-07-02T03:29:12;26.70;61.70
1175;DHT22;576;48.418;10.074;2023-07-02T03:31:40;26.60;61.60
1175;DHT22;576;48.418;10.074;2023-07-02T03:34:09;26.60;61.60
1175;DHT22;576;48.418;10.074;2023-07-02T03:36:39;26.60;61.70
1175;DHT22;576;48.418;10.074;2023-07-02T03:39:07;26.60;61.60
1175;DHT22;576;48.418;10.074;2023-07-02T03:41:37;26.60;61.60
1175;DHT22;576;48.418;10.074;2023-07-02T03:44:05;26.60;61.70
1175;DHT22;576;48.418;10.074;2023-07-02T03:46:34;26.60;61.80
1175;DHT22;576;48.418;10.074;2023-07-02T03:49:03;26.60;61.70
1175;DHT22;576;48.418;10.074;2023-07-02T03:51:31;26.60;61.80
1175;DHT22;576;48.418;10.074;2023-07-02T03:54:01;26.60;61.70
1175;DHT22;576;48.418;10.074;2023-07-02T03:56:29;26.60;61.70
1175;DHT22;576;48.418;10.074;2023-07-02T03:58:57;26.60;61.70
1175;DHT22;576;48.418;10.074;2023-07-02T04:01:25;26.60;61.70
1175;DHT22;576;48.418;10.074;2023-07-02T04:03:54;26.60;61.60
1175;DHT22;576;48.418;10.074;2023-07-02T04:06:23;26.60;61.60
1175;DHT22;576;48.418;10.074;2023-07-02T04:08:51;26.60;61.60
1175;DHT22;576;48.418;10.074;2023-07-02T04:11:20;26.60;61.70
1175;DHT22;576;48.418;10.074;2023-07-02T04:13:49;26.60;61.70
1175;DHT22;576;48.418;10.074;2023-07-02T04:16:17;26.60;61.70
1175;DHT22;576;48.418;10.074;2023-07-02T04:18:45;26.60;61.70
1175;DHT22;576;48.418;10.074;2023-07-02T04:21:13;26.60;61.70
1175;DHT22;576;48.418;10.074;2023-07-02T04:23:41;26.60;61.70
1175;DHT22;576;48.418;10.074;2023-07-02T04:26:10;26.60;61.70
1175;DHT22;576;48.418;10.074;2023-07-02T04:29:00;26.60;61.70
1175;DHT22;576;48.418;10.074;2023-07-02T04:31:29;26.60;61.70
1175;DHT22;576;48.418;10.074;2023-07-02T04:33:57;26.60;61.70
1175;DHT22;576;48.418;10.074;2023-07-02T04:36:26;26.60;61.80
1175;DHT22;576;48.418;10.074;2023-07-02T04:38:55;26.60;61.80
1175;DHT22;576;48.418;10.074;2023-07-02T04:41:23;26.60;61.80
1175;DHT22;576;48.418;10.074;2023-07-02T04:43:51;26.60;61.80
1175;DHT22;576;48.418;10.074;2023-07-02T04:46:21;26.60;61.90
1175;DHT22;576;48.418;10.074;2023-07-02T04:48:50;26.50;61.90
1175;DHT22;576;48.418;10.074;2023-07-02T04:51:20;26.60;61.90
1175;DHT22;576;48.418;10.074;2023-07-02T04:53:49;26.50;62.00
1175;DHT22;576;48.418;10.074;2023-07-02T04:56:17;26.50;62.00
1175;DHT22;576;48.418;10.074;2023-07-02T04:58:45;26.50;62.00
1175;DHT22;576;48.418;10.074;2023-07-02T05:01:13;26.50;62.00
1175;DHT22;576;48.418;10.074;2023-07-02T05:03:43;26.50;62.00
1175;DHT22;576;48.418;10.074;2023-07-02T05:06:11;26.50;62.00
1175;DHT22;576;48.418;10.074;2023-07-02T05:08:39;26.50;62.00
1175;DHT22;576;48.418;10.074;2023-07-02T05:11:09;26.50;62.10
1175;DHT22;576;48.418;10.074;2023-07-02T05:13:37;26.50;62.10
1175;DHT22;576;48.418;10.074;2023-07-02T05:16:06;26.50;62.00
1175;DHT22;576;48.418;10.074;2023-07-02T05:18:34;26.50;62.10
1175;DHT22;576;48.418;10.074;2023-07-02T05:21:04;26.50;62.10
1175;DHT22;576;48.418;10.074;2023-07-02T05:23:32;26.50;62.00
1175;DHT22;576;48.418;10.074;2023-07-02T05:26:01;26.50;62.00
1175;DHT22;576;48.418;10.074;2023-07-02T05:28:29;26.50;62.00
1175;DHT22;576;48.418;10.074;2023-07-02T05:30:57;26.50;62.10
1175;DHT22;576;48.418;10.074;2023-07-02T05:33:25;26.50;62.10
1175;DHT22;576;48.418;10.074;2023-07-02T05:35:53;26.50;62.10
1175;DHT22;576;48.418;10.074;2023-07-02T05:38:23;26.50;62.10
1175;DHT22;576;48.418;10.074;2023-07-02T05:40:52;26.50;62.10
1175;DHT22;576;48.418;10.074;2023-07-02T05:43:20;26.50;62.00
1175;DHT22;576;48.418;10.074;2023-07-02T05:45:50;26.50;62.10
1175;DHT22;576;48.418;10.074;2023-07-02T05:48:19;26.50;62.10
1175;DHT22;576;48.418;10.074;2023-07-02T05:50:47;26.50;62.10
1175;DHT22;576;48.418;10.074;2023-07-02T05:53:16;26.50;62.10
1175;DHT22;576;48.418;10.074;2023-07-02T05:55:45;26.50;62.10
1175;DHT22;576;48.418;10.074;2023-07-02T05:58:13;26.50;62.10
1175;DHT22;576;48.418;10.074;2023-07-02T06:00:42;26.50;62.10
1175;DHT22;576;48.418;10.074;2023-07-02T06:03:17;26.50;62.10
1175;DHT22;576;48.418;10.074;2023-07-02T06:05:47;26.50;62.10
1175;DHT22;576;48.418;10.074;2023-07-02T06:08:16;26.50;62.10
1175;DHT22;576;48.418;10.074;2023-07-02T06:10:47;26.50;62.10
1175;DHT22;576;48.418;10.074;2023-07-02T06:13:16;26.50;62.10
1175;DHT22;576;48.418;10.074;2023-07-02T06:15:46;26.50;62.10
1175;DHT22;576;48.418;10.074;2023-07-02T06:18:14;26.50;62.10
1175;DHT22;576;48.418;10.074;2023-07-02T06:20:44;26.60;62.00
1175;DHT22;576;48.418;10.074;2023-07-02T06:23:12;26.60;62.00
1175;DHT22;576;48.418;10.074;2023-07-02T06:25:41;26.60;62.00
1175;DHT22;576;48.418;10.074;2023-07-02T06:28:11;26.60;62.00
1175;DHT22;576;48.418;10.074;2023-07-02T06:30:39;26.60;62.00
1175;DHT22;576;48.418;10.074;2023-07-02T06:33:07;26.60;62.00
1175;DHT22;576;48.418;10.074;2023-07-02T06:35:35;26.60;62.00
1175;DHT22;576;48.418;10.074;2023-07-02T06:38:03;26.60;62.00
1175;DHT22;576;48.418;10.074;2023-07-02T06:40:32;26.60;61.90
1175;DHT22;576;48.418;10.074;2023-07-02T06:43:01;26.60;61.90
1175;DHT22;576;48.418;10.074;2023-07-02T06:45:30;26.60;62.00
1175;DHT22;576;48.418;10.074;2023-07-02T06:47:58;26.70;62.00
1175;DHT22;576;48.418;10.074;2023-07-02T06:50:27;26.70;62.00
1175;DHT22;576;48.418;10.074;2023-07-02T06:52:55;26.70;62.00
1175;DHT22;576;48.418;10.074;2023-07-02T06:55:23;26.70;62.00
1175;DHT22;576;48.418;10.074;2023-07-02T06:57:51;26.70;62.00
1175;DHT22;576;48.418;10.074;2023-07-02T07:00:20;26.70;63.80
1175;DHT22;576;48.418;10.074;2023-07-02T07:02:49;26.70;64.00
1175;DHT22;576;48.418;10.074;2023-07-02T07:05:18;26.80;63.10
1175;DHT22;576;48.418;10.074;2023-07-02T07:07:46;26.80;62.90
1175;DHT22;576;48.418;10.074;2023-07-02T07:10:14;26.80;63.70
1175;DHT22;576;48.418;10.074;2023-07-02T07:12:42;26.80;63.70
1175;DHT22;576;48.418;10.074;2023-07-02T07:15:11;26.80;62.90
1175;DHT22;576;48.418;10.074;2023-07-02T07:17:39;26.80;62.70
1175;DHT22;576;48.418;10.074;2023-07-02T07:20:09;26.80;62.70
1175;DHT22;576;48.418;10.074;2023-07-02T07:22:38;26.80;62.60
1175;DHT22;576;48.418;10.074;2023-07-02T07:25:07;26.80;62.60
1175;DHT22;576;48.418;10.074;2023-07-02T07:27:35;26.80;62.60
1175;DHT22;576;48.418;10.074;2023-07-02T07:30:04;26.90;62.50
1175;DHT22;576;48.418;10.074;2023-07-02T07:32:33;26.90;62.50
1175;DHT22;576;48.418;10.074;2023-07-02T07:35:01;26.90;62.50
1175;DHT22;576;48.418;10.074;2023-07-02T07:37:30;26.90;62.50
1175;DHT22;576;48.418;10.074;2023-07-02T07:39:59;26.90;62.50
1175;DHT22;576;48.418;10.074;2023-07-02T07:42:27;26.90;62.40
1175;DHT22;576;48.418;10.074;2023-07-02T07:44:55;26.90;62.80
1175;DHT22;576;48.418;10.074;2023-07-02T07:47:23;26.90;62.70
1175;DHT22;576;48.418;10.074;2023-07-02T07:49:51;26.90;62.50
1175;DHT22;576;48.418;10.074;2023-07-02T07:52:20;26.90;62.40
1175;DHT22;576;48.418;10.074;2023-07-02T07:54:49;26.90;62.30
1175;DHT22;576;48.418;10.074;2023-07-02T07:57:17;27.00;62.20
1175;DHT22;576;48.418;10.074;2023-07-02T07:59:45;27.00;62.20
1175;DHT22;576;48.418;10.074;2023-07-02T08:02:14;27.00;62.20
1175;DHT22;576;48.418;10.074;2023-07-02T08:04:42;27.00;62.20
1175;DHT22;576;48.418;10.074;2023-07-02T08:07:10;27.00;62.10
1175;DHT22;576;48.418;10.074;2023-07-02T08:09:38;27.00;62.10
1175;DHT22;576;48.418;10.074;2023-07-02T08:12:08;27.00;62.10
1175;DHT22;576;48.418;10.074;2023-07-02T08:14:36;27.00;62.10
1175;DHT22;576;48.418;10.074;2023-07-02T08:17:05;27.00;62.00
1175;DHT22;576;48.418;10.074;2023-07-02T08:19:33;27.00;62.00
1175;DHT22;576;48.418;10.074;2023-07-02T08:22:01;27.00;62.00
1175;DHT22;576;48.418;10.074;2023-07-02T08:24:29;27.00;61.90
1175;DHT22;576;48.418;10.074;2023-07-02T08:26:58;27.00;61.90
1175;DHT22;576;48.418;10.074;2023-07-02T08:29:27;27.00;62.00
1175;DHT22;576;48.418;10.074;2023-07-02T08:31:56;27.00;61.90
1175;DHT22;576;48.418;10.074;2023-07-02T08:34:24;27.00;61.80
1175;DHT22;576;48.418;10.074;2023-07-02T08:36:52;27.00;61.80
1175;DHT22;576;48.418;10.074;2023-07-02T08:39:21;27.10;61.80
1175;DHT22;576;48.418;10.074;2023-07-02T08:41:49;27.10;61.80
1175;DHT22;576;48.418;10.074;2023-07-02T08:44:20;27.10;61.90
1175;DHT22;576;48.418;10.074;2023-07-02T08:46:50;27.10;61.70
1175;DHT22;576;48.418;10.074;2023-07-02T08:49:22;27.10;61.70
1175;DHT22;576;48.418;10.074;2023-07-02T08:51:51;27.10;61.80
1175;DHT22;576;48.418;10.074;2023-07-02T08:54:19;27.10;61.70
1175;DHT22;576;48.418;10.074;2023-07-02T08:56:47;27.10;61.70
1175;DHT22;576;48.418;10.074;2023-07-02T08:59:16;27.10;61.60
1175;DHT22;576;48.418;10.074;2023-07-02T09:01:48;27.10;61.70
1175;DHT22;576;48.418;10.074;2023-07-02T09:04:19;27.10;61.70
1175;DHT22;576;48.418;10.074;2023-07-02T09:06:47;27.10;61.60
1175;DHT22;576;48.418;10.074;2023-07-02T09:09:16;27.10;61.60
1175;DHT22;576;48.418;10.074;2023-07-02T09:11:48;27.10;61.60
1175;DHT22;576;48.418;10.074;2023-07-02T09:14:27;27.10;61.60
1175;DHT22;576;48.418;10.074;2023-07-02T09:17:06;27.10;61.60
1175;DHT22;576;48.418;10.074;2023-07-02T09:19:48;27.10;61.50
1175;DHT22;576;48.418;10.074;2023-07-02T09:22:17;27.10;61.40
1175;DHT22;576;48.418;10.074;2023-07-02T09:24:51;27.10;61.40
1175;DHT22;576;48.418;10.074;2023-07-02T09:27:20;27.10;61.40
1175;DHT22;576;48.418;10.074;2023-07-02T09:29:51;27.10;61.30
1175;DHT22;576;48.418;10.074;2023-07-02T09:32:26;27.10;61.10
1175;DHT22;576;48.418;10.074;2023-07-02T09:34:57;27.10;61.20
1175;DHT22;576;48.418;10.074;2023-07-02T09:37:26;27.10;61.10
1175;DHT22;576;48.418;10.074;2023-07-02T09:39:55;27.20;61.00
1175;DHT22;576;48.418;10.074;2023-07-02T09:42:25;27.10;61.10
1175;DHT22;576;48.418;10.074;2023-07-02T09:44:53;27.10;61.10
1175;DHT22;576;48.418;10.074;2023-07-02T09:47:24;27.10;61.20
1175;DHT22;576;48.418;10.074;2023-07-02T09:49:54;27.10;61.10
1175;DHT22;576;48.418;10.074;2023-07-02T09:52:25;27.10;61.20
1175;DHT22;576;48.418;10.074;2023-07-02T09:54:54;27.10;61.20
1175;DHT22;576;48.418;10.074;2023-07-02T09:57:22;27.20;61.10
1175;DHT22;576;48.418;10.074;2023-07-02T09:59:50;27.20;61.10
1175;DHT22;576;48.418;10.074;2023-07-02T10:02:19;27.20;61.10
1175;DHT22;576;48.418;10.074;2023-07-02T10:04:47;27.20;61.10
1175;DHT22;576;48.418;10.074;2023-07-02T10:07:30;27.20;61.10
1175;DHT22;576;48.418;10.074;2023-07-02T10:09:59;27.20;61.00
1175;DHT22;576;48.418;10.074;2023-07-02T10:12:28;27.20;60.90
1175;DHT22;576;48.418;10.074;2023-07-02T10:14:58;27.30;60.80
1175;DHT22;576;48.418;10.074;2023-07-02T10:17:28;27.30;60.90
1175;DHT22;576;48.418;10.074;2023-07-02T10:19:59;27.20;60.80
1175;DHT22;576;48.418;10.074;2023-07-02T10:22:29;27.20;60.90
1175;DHT22;576;48.418;10.074;2023-07-02T10:24:58;27.30;60.80
1175;DHT22;576;48.418;10.074;2023-07-02T10:27:35;27.30;60.80
1175;DHT22;576;48.418;10.074;2023-07-02T10:30:05;27.20;60.70
1175;DHT22;576;48.418;10.074;2023-07-02T10:32:34;27.30;60.80
1175;DHT22;576;48.418;10.074;2023-07-02T10:35:13;27.30;60.80
1175;DHT22;576;48.418;10.074;2023-07-02T10:37:43;27.30;60.80
1175;DHT22;576;48.418;10.074;2023-07-02T10:40:12;27.30;60.70
1175;DHT22;576;48.418;10.074;2023-07-02T10:42:47;27.30;60.70
1175;DHT22;576;48.418;10.074;2023-07-02T10:45:16;27.30;60.70
1175;DHT22;576;48.418;10.074;2023-07-02T10:47:45;27.30;60.60
1175;DHT22;576;48.418;10.074;2023-07-02T10:50:15;27.30;60.70
1175;DHT22;576;48.418;10.074;2023-07-02T10:52:45;27.30;60.70
1175;DHT22;576;48.418;10.074;2023-07-02T10:55:16;27.30;60.70
1175;DHT22;576;48.418;10.074;2023-07-02T10:57:45;27.30;60.60
1175;DHT22;576;48.418;10.074;2023-07-02T11:00:14;27.30;60.60
1175;DHT22;576;48.418;10.074;2023-07-02T11:02:43;27.30;60.60
1175;DHT22;576;48.418;10.074;2023-07-02T11:05:11;27.40;60.50
1175;DHT22;576;48.418;10.074;2023-07-02T11:07:40;27.40;60.50
1175;DHT22;576;48.418;10.074;2023-07-02T11:10:17;27.40;60.40
1175;DHT22;576;48.418;10.074;2023-07-02T11:12:46;27.40;60.40
1175;DHT22;576;48.418;10.074;2023-07-02T11:15:16;27.40;60.40
1175;DHT22;576;48.418;10.074;2023-07-02T11:17:45;27.40;60.40
1175;DHT22;576;48.418;10.074;2023-07-02T11:20:14;27.40;60.40
1175;DHT22;576;48.418;10.074;2023-07-02T11:22:43;27.40;60.40
1175;DHT22;576;48.418;10.074;2023-07-02T11:25:13;27.40;60.30
1175;DHT22;576;48.418;10.074;2023-07-02T11:27:42;27.40;60.30
1175;DHT22;576;48.418;10.074;2023-07-02T11:30:12;27.40;60.40
1175;DHT22;576;48.418;10.074;2023-07-02T11:32:51;27.40;60.40
1175;DHT22;576;48.418;10.074;2023-07-02T11:35:19;27.40;60.40
1175;DHT22;576;48.418;10.074;2023-07-02T11:37:48;27.40;60.40
1175;DHT22;576;48.418;10.074;2023-07-02T11:40:18;27.40;60.50
1175;DHT22;576;48.418;10.074;2023-07-02T11:42:48;27.40;60.50
1175;DHT22;576;48.418;10.074;2023-07-02T11:45:16;27.40;60.40
1175;DHT22;576;48.418;10.074;2023-07-02T11:47:44;27.40;60.50
1175;DHT22;576;48.418;10.074;2023-07-02T11:50:12;27.40;60.60
1175;DHT22;576;48.418;10.074;2023-07-02T11:52:53;27.40;60.50
1175;DHT22;576;48.418;10.074;2023-07-02T11:55:23;27.40;60.50
1175;DHT22;576;48.418;10.074;2023-07-02T11:57:51;27.40;60.50
1175;DHT22;576;48.418;10.074;2023-07-02T12:00:19;27.40;60.50
1175;DHT22;576;48.418;10.074;2023-07-02T12:02:50;27.40;60.60
1175;DHT22;576;48.418;10.074;2023-07-02T12:05:18;27.40;60.40
1175;DHT22;576;48.418;10.074;2023-07-02T12:07:47;27.40;60.40
1175;DHT22;576;48.418;10.074;2023-07-02T12:10:15;27.50;60.40
1175;DHT22;576;48.418;10.074;2023-07-02T12:12:45;27.50;60.30
1175;DHT22;576;48.418;10.074;2023-07-02T12:15:13;27.60;60.20
1175;DHT22;576;48.418;10.074;2023-07-02T12:17:41;27.70;60.00
1175;DHT22;576;48.418;10.074;2023-07-02T12:20:10;27.80;59.90
1175;DHT22;576;48.418;10.074;2023-07-02T12:22:38;28.00;59.60
1175;DHT22;576;48.418;10.074;2023-07-02T12:25:07;28.20;59.20
1175;DHT22;576;48.418;10.074;2023-07-02T12:27:36;28.40;58.90
1175;DHT22;576;48.418;10.074;2023-07-02T12:30:07;28.50;58.50
1175;DHT22;576;48.418;10.074;2023-07-02T12:32:37;28.50;58.60
1175;DHT22;576;48.418;10.074;2023-07-02T12:35:06;28.50;58.50
1175;DHT22;576;48.418;10.074;2023-07-02T12:37:35;28.50;58.40
1175;DHT22;576;48.418;10.074;2023-07-02T12:40:03;28.50;58.30
1175;DHT22;576;48.418;10.074;2023-07-02T12:42:32;28.50;58.30
1175;DHT22;576;48.418;10.074;2023-07-02T12:45:00;28.60;58.20
1175;DHT22;576;48.418;10.074;2023-07-02T12:47:30;28.60;58.10
1175;DHT22;576;48.418;10.074;2023-07-02T12:49:58;28.50;58.00
1175;DHT22;576;48.418;10.074;2023-07-02T12:52:27;28.50;58.30
1175;DHT22;576;48.418;10.074;2023-07-02T12:54:56;28.50;58.30
1175;DHT22;576;48.418;10.074;2023-07-02T12:57:24;28.50;58.20
1175;DHT22;576;48.418;10.074;2023-07-02T12:59:53;28.50;58.30
1175;DHT22;576;48.418;10.074;2023-07-02T13:02:22;28.50;58.10
1175;DHT22;576;48.418;10.074;2023-07-02T13:04:51;28.50;58.20
1175;DHT22;576;48.418;10.074;2023-07-02T13:07:20;28.40;58.30
1175;DHT22;576;48.418;10.074;2023-07-02T13:09:50;28.40;58.20
1175;DHT22;576;48.418;10.074;2023-07-02T13:12:18;28.30;58.40
1175;DHT22;576;48.418;10.074;2023-07-02T13:14:46;28.20;58.60
1175;DHT22;576;48.418;10.074;2023-07-02T13:17:15;28.10;58.80
1175;DHT22;576;48.418;10.074;2023-07-02T13:19:43;28.20;58.90
1175;DHT22;576;48.418;10.074;2023-07-02T13:22:12;28.20;58.90
1175;DHT22;576;48.418;10.074;2023-07-02T13:24:41;28.20;58.80
1175;DHT22;576;48.418;10.074;2023-07-02T13:27:13;28.20;58.80
1175;DHT22;576;48.418;10.074;2023-07-02T13:29:43;28.20;58.80
1175;DHT22;576;48.418;10.074;2023-07-02T13:32:11;28.20;58.70
1175;DHT22;576;48.418;10.074;2023-07-02T13:34:39;28.20;58.80
1175;DHT22;576;48.418;10.074;2023-07-02T13:37:08;28.20;58.80
1175;DHT22;576;48.418;10.074;2023-07-02T13:39:38;28.20;58.70
1175;DHT22;576;48.418;10.074;2023-07-02T13:42:06;28.20;58.80
1175;DHT22;576;48.418;10.074;2023-07-02T13:44:34;28.10;58.90
1175;DHT22;576;48.418;10.074;2023-07-02T13:47:03;28.10;59.00
1175;DHT22;576;48.418;10.074;2023-07-02T13:49:32;28.10;59.10
1175;DHT22;576;48.418;10.074;2023-07-02T13:52:00;28.00;59.10
1175;DHT22;576;48.418;10.074;2023-07-02T13:54:29;28.00;58.60
1175;DHT22;576;48.418;10.074;2023-07-02T13:56:58;28.00;59.00
1175;DHT22;576;48.418;10.074;2023-07-02T13:59:28;28.00;59.00
1175;DHT22;576;48.418;10.074;2023-07-02T14:01:56;28.00;59.10
1175;DHT22;576;48.418;10.074;2023-07-02T14:04:24;28.00;59.00
1175;DHT22;576;48.418;10.074;2023-07-02T14:06:53;28.00;58.90
1175;DHT22;576;48.418;10.074;2023-07-02T14:09:21;28.00;58.80
1175;DHT22;576;48.418;10.074;2023-07-02T14:11:49;28.00;58.80
1175;DHT22;576;48.418;10.074;2023-07-02T14:14:18;28.00;58.70
1175;DHT22;576;48.418;10.074;2023-07-02T14:16:48;28.00;58.80
1175;DHT22;576;48.418;10.074;2023-07-02T14:19:16;28.00;58.70
1175;DHT22;576;48.418;10.074;2023-07-02T14:21:44;28.00;58.50
1175;DHT22;576;48.418;10.074;2023-07-02T14:24:14;28.00;58.70
1175;DHT22;576;48.418;10.074;2023-07-02T14:26:43;28.00;58.50
1175;DHT22;576;48.418;10.074;2023-07-02T14:29:11;28.00;58.60
1175;DHT22;576;48.418;10.074;2023-07-02T14:31:39;28.00;58.60
1175;DHT22;576;48.418;10.074;2023-07-02T14:34:09;28.00;58.40
1175;DHT22;576;48.418;10.074;2023-07-02T14:36:37;28.00;58.50
1175;DHT22;576;48.418;10.074;2023-07-02T14:39:06;28.00;58.40
1175;DHT22;576;48.418;10.074;2023-07-02T14:41:34;28.00;58.40
1175;DHT22;576;48.418;10.074;2023-07-02T14:44:02;28.00;58.40
1175;DHT22;576;48.418;10.074;2023-07-02T14:46:31;28.00;58.50
1175;DHT22;576;48.418;10.074;2023-07-02T14:49:00;28.00;58.30
1175;DHT22;576;48.418;10.074;2023-07-02T14:51:29;28.00;58.50
1175;DHT22;576;48.418;10.074;2023-07-02T14:53:58;28.00;58.50
1175;DHT22;576;48.418;10.074;2023-07-02T14:56:26;28.00;58.50
1175;DHT22;576;48.418;10.074;2023-07-02T14:58:54;28.00;58.60
1175;DHT22;576;48.418;10.074;2023-07-02T15:01:23;28.10;58.60
1175;DHT22;576;48.418;10.074;2023-07-02T15:03:52;28.10;58.10
1175;DHT22;576;48.418;10.074;2023-07-02T15:06:20;28.10;58.00
1175;DHT22;576;48.418;10.074;2023-07-02T15:08:50;28.10;57.90
1175;DHT22;576;48.418;10.074;2023-07-02T15:11:19;28.10;57.90
1175;DHT22;576;48.418;10.074;2023-07-02T15:13:47;28.10;58.00
1175;DHT22;576;48.418;10.074;2023-07-02T15:16:15;28.20;58.00
1175;DHT22;576;48.418;10.074;2023-07-02T15:18:43;28.20;58.00
1175;DHT22;576;48.418;10.074;2023-07-02T15:21:11;28.20;58.00
1175;DHT22;576;48.418;10.074;2023-07-02T15:23:40;28.20;57.90
1175;DHT22;576;48.418;10.074;2023-07-02T15:26:09;28.10;57.90
1175;DHT22;576;48.418;10.074;2023-07-02T15:28:38;28.10;58.10
1175;DHT22;576;48.418;10.074;2023-07-02T15:31:08;28.10;58.10
1175;DHT22;576;48.418;10.074;2023-07-02T15:33:37;28.10;58.20
1175;DHT22;576;48.418;10.074;2023-07-02T15:36:06;28.10;58.10
1175;DHT22;576;48.418;10.074;2023-07-02T15:38:36;28.10;58.20
1175;DHT22;576;48.418;10.074;2023-07-02T15:41:07;28.10;58.20
1175;DHT22;576;48.418;10.074;2023-07-02T15:43:37;28.10;58.20
1175;DHT22;576;48.418;10.074;2023-07-02T15:46:05;28.10;58.10
1175;DHT22;576;48.418;10.074;2023-07-02T15:48:33;28.10;58.10
1175;DHT22;576;48.418;10.074;2023-07-02T15:51:02;28.10;58.20
1175;DHT22;576;48.418;10.074;2023-07-02T15:53:31;28.10;58.20
1175;DHT22;576;48.418;10.074;2023-07-02T15:56:00;28.10;58.20
1175;DHT22;576;48.418;10.074;2023-07-02T15:58:30;28.00;58.00
1175;DHT22;576;48.418;10.074;2023-07-02T16:01:08;28.10;57.90
1175;DHT22;576;48.418;10.074;2023-07-02T16:03:37;28.10;58.10
1175;DHT22;576;48.418;10.074;2023-07-02T16:06:06;28.10;58.00
1175;DHT22;576;48.418;10.074;2023-07-02T16:08:35;28.20;57.90
1175;DHT22;576;48.418;10.074;2023-07-02T16:11:04;28.20;57.90
1175;DHT22;576;48.418;10.074;2023-07-02T16:13:33;28.20;57.60